sensor_id;sensor_type;location;lat;lon;timestamp;temperature;humidity
43043;DHT22;28667;50.758;6.096;2024-03-08T00:00:09;2.70;99.90
43043;DHT22;28667;50.758;6.096;2024-03-08T00:02:39;2.70;99.90
43043;DHT22;28667;50.758;6.096;2024-03-08T00:05:06;2.70;99.90
43043;DHT22;28667;50.758;6.096;2024-03-08T00:07:43;2.70;99.90
43043;DHT22;28667;50.758;6.096;2024-03-08T00:10:10;2.60;99.90
43043;DHT22;28667;50.758;6.096;2024-03-08T00:12:40;2.60;99.90
43043;DHT22;28667;50.758;6.096;2024-03-08T00:15:13;2.60;99.90
43043;DHT22;28667;50.758;6.096;2024-03-08T00:17:43;2.60;99.90
43043;DHT22;28667;50.758;6.096;2024-03-08T00:20:09;2.60;99.90
43043;DHT22;28667;50.758;6.096;2024-03-08T00:22:36;2.50;99.90
43043;DHT22;28667;50.758;6.096;2024-03-08T00:25:05;2.50;99.90
43043;DHT22;28667;50.758;6.096;2024-03-08T00:27:34;2.40;99.90
43043;DHT22;28667;50.758;6.096;2024-03-08T00:30:00;2.40;99.90
43043;DHT22;28667;50.758;6.096;2024-03-08T00:32:26;2.40;99.90
43043;DHT22;28667;50.758;6.096;2024-03-08T00:34:56;2.40;99.90
43043;DHT22;28667;50.758;6.096;2024-03-08T00:37:21;2.40;99.90
43043;DHT22;28667;50.758;6.096;2024-03-08T00:39:48;2.30;99.90
43043;DHT22;28667;50.758;6.096;2024-03-08T00:42:16;2.30;99.90
43043;DHT22;28667;50.758;6.096;2024-03-08T00:44:41;2.30;99.90
43043;DHT22;28667;50.758;6.096;2024-03-08T00:47:07;2.30;99.90
43043;DHT22;28667;50.758;6.096;2024-03-08T00:49:33;2.20;99.90
43043;DHT22;28667;50.758;6.096;2024-03-08T00:51:59;2.20;99.90
43043;DHT22;28667;50.758;6.096;2024-03-08T00:54:25;2.20;99.90
43043;DHT22;28667;50.758;6.096;2024-03-08T00:56:51;2.10;99.90
43043;DHT22;28667;50.758;6.096;2024-03-08T00:59:16;2.10;99.90
43043;DHT22;28667;50.758;6.096;2024-03-08T01:01:42;2.00;99.90
43043;DHT22;28667;50.758;6.096;2024-03-08T01:04:10;2.00;99.90
43043;DHT22;28667;50.758;6.096;2024-03-08T01:06:35;1.90;99.90
43043;DHT22;28667;50.758;6.096;2024-03-08T01:09:01;1.90;99.90
43043;DHT22;28667;50.758;6.096;2024-03-08T01:11:27;1.90;99.90
43043;DHT22;28667;50.758;6.096;2024-03-08T01:13:53;1.90;99.90
43043;DHT22;28667;50.758;6.096;2024-03-08T01:16:19;1.80;99.90
43043;DHT22;28667;50.758;6.096;2024-03-08T01:18:48;1.80;99.90
43043;DHT22;28667;50.758;6.096;2024-03-08T01:21:14;1.80;99.90
43043;DHT22;28667;50.758;6.096;2024-03-08T01:23:39;1.70;99.90
43043;DHT22;28667;50.758;6.096;2024-03-08T01:26:05;1.70;99.90
43043;DHT22;28667;50.758;6.096;2024-03-08T01:28:31;1.70;99.90
43043;DHT22;28667;50.758;6.096;2024-03-08T01:30:59;1.60;99.90
43043;DHT22;28667;50.758;6.096;2024-03-08T01:33:26;1.60;99.90
43043;DHT22;28667;50.758;6.096;2024-03-08T01:35:53;1.60;99.90
43043;DHT22;28667;50.758;6.096;2024-03-08T01:38:21;1.50;99.90
43043;DHT22;28667;50.758;6.096;2024-03-08T01:40:47;1.50;99.90
43043;DHT22;28667;50.758;6.096;2024-03-08T01:43:27;1.50;99.90
43043;DHT22;28667;50.758;6.096;2024-03-08T01:46:00;1.50;99.90
43043;DHT22;28667;50.758;6.096;2024-03-08T01:48:27;1.50;99.90
43043;DHT22;28667;50.758;6.096;2024-03-08T01:50:58;1.40;99.90
43043;DHT22;28667;50.758;6.096;2024-03-08T01:53:24;1.40;99.90
43043;DHT22;28667;50.758;6.096;2024-03-08T01:55:55;1.40;99.90
43043;DHT22;28667;50.758;6.096;2024-03-08T01:58:22;1.40;99.90
43043;DHT22;28667;50.758;6.096;2024-03-08T02:00:49;1.40;99.90
43043;DHT22;28667;50.758;6.096;2024-03-08T02:03:15;1.40;99.90
43043;DHT22;28667;50.758;6.096;2024-03-08T02:05:41;1.40;99.90
43043;DHT22;28667;50.758;6.096;2024-03-08T02:08:08;1.40;99.90
43043;DHT22;28667;50.758;6.096;2024-03-08T02:10:38;1.30;99.90
43043;DHT22;28667;50.758;6.096;2024-03-08T02:13:04;1.30;99.90
43043;DHT22;28667;50.758;6.096;2024-03-08T02:15:49;1.30;99.90
43043;DHT22;28667;50.758;6.096;2024-03-08T02:18:15;1.20;99.90
43043;DHT22;28667;50.758;6.096;2024-03-08T02:20:43;1.20;99.90
43043;DHT22;28667;50.758;6.096;2024-03-08T02:23:08;1.20;99.90
43043;DHT22;28667;50.758;6.096;2024-03-08T02:25:35;1.20;99.90
43043;DHT22;28667;50.758;6.096;2024-03-08T02:28:01;1.20;99.90
43043;DHT22;28667;50.758;6.096;2024-03-08T02:30:27;1.20;99.90
43043;DHT22;28667;50.758;6.096;2024-03-08T02:32:55;1.20;99.90
43043;DHT22;28667;50.758;6.096;2024-03-08T02:35:21;1.20;99.90
43043;DHT22;28667;50.758;6.096;2024-03-08T02:37:47;1.20;99.90
43043;DHT22;28667;50.758;6.096;2024-03-08T02:40:13;1.10;99.90
43043;DHT22;28667;50.758;6.096;2024-03-08T02:42:39;1.10;99.90
43043;DHT22;28667;50.758;6.096;2024-03-08T02:45:06;1.10;99.90
43043;DHT22;28667;50.758;6.096;2024-03-08T02:47:32;1.10;99.90
43043;DHT22;28667;50.758;6.096;2024-03-08T02:49:58;1.10;99.90
43043;DHT22;28667;50.758;6.096;2024-03-08T02:52:23;1.10;99.90
43043;DHT22;28667;50.758;6.096;2024-03-08T02:54:49;1.00;99.90
43043;DHT22;28667;50.758;6.096;2024-03-08T02:57:15;1.00;99.90
43043;DHT22;28667;50.758;6.096;2024-03-08T02:59:41;1.00;99.90
43043;DHT22;28667;50.758;6.096;2024-03-08T03:02:07;0.90;99.90
43043;DHT22;28667;50.758;6.096;2024-03-08T03:04:33;0.90;99.90
43043;DHT22;28667;50.758;6.096;2024-03-08T03:07:01;0.90;99.90
43043;DHT22;28667;50.758;6.096;2024-03-08T03:09:27;0.90;99.90
43043;DHT22;28667;50.758;6.096;2024-03-08T03:11:56;0.90;99.90
43043;DHT22;28667;50.758;6.096;2024-03-08T03:14:24;0.90;99.90
43043;DHT22;28667;50.758;6.096;2024-03-08T03:16:52;0.80;99.90
43043;DHT22;28667;50.758;6.096;2024-03-08T03:19:18;0.80;99.90
43043;DHT22;28667;50.758;6.096;2024-03-08T03:21:43;0.80;99.90
43043;DHT22;28667;50.758;6.096;2024-03-08T03:24:09;0.80;99.90
43043;DHT22;28667;50.758;6.096;2024-03-08T03:26:38;0.80;99.90
43043;DHT22;28667;50.758;6.096;2024-03-08T03:29:07;0.80;99.90
43043;DHT22;28667;50.758;6.096;2024-03-08T03:31:37;0.80;99.90
43043;DHT22;28667;50.758;6.096;2024-03-08T03:34:03;0.80;99.90
43043;DHT22;28667;50.758;6.096;2024-03-08T03:36:32;0.70;99.90
43043;DHT22;28667;50.758;6.096;2024-03-08T03:38:58;0.70;99.90
43043;DHT22;28667;50.758;6.096;2024-03-08T03:41:50;0.70;99.90
43043;DHT22;28667;50.758;6.096;2024-03-08T03:44:17;0.70;99.90
43043;DHT22;28667;50.758;6.096;2024-03-08T03:46:43;0.70;99.90
43043;DHT22;28667;50.758;6.096;2024-03-08T03:49:12;0.70;99.90
43043;DHT22;28667;50.758;6.096;2024-03-08T03:51:38;0.70;99.90
43043;DHT22;28667;50.758;6.096;2024-03-08T03:54:04;0.70;99.90
43043;DHT22;28667;50.758;6.096;2024-03-08T03:56:30;0.70;99.90
43043;DHT22;28667;50.758;6.096;2024-03-08T03:58:56;0.60;99.90
43043;DHT22;28667;50.758;6.096;2024-03-08T04:01:22;0.60;99.90
43043;DHT22;28667;50.758;6.096;2024-03-08T04:03:47;0.60;99.90
43043;DHT22;28667;50.758;6.096;2024-03-08T04:06:13;0.70;99.90
43043;DHT22;28667;50.758;6.096;2024-03-08T04:08:40;0.60;99.90
43043;DHT22;28667;50.758;6.096;2024-03-08T04:11:07;0.60;99.90
43043;DHT22;28667;50.758;6.096;2024-03-08T04:13:34;0.60;99.90
43043;DHT22;28667;50.758;6.096;2024-03-08T04:16:00;0.60;99.90
43043;DHT22;28667;50.758;6.096;2024-03-08T04:18:26;0.60;99.90
43043;DHT22;28667;50.758;6.096;2024-03-08T04:20:51;0.60;99.90
43043;DHT22;28667;50.758;6.096;2024-03-08T04:23:17;0.50;99.90
43043;DHT22;28667;50.758;6.096;2024-03-08T04:25:43;0.50;99.90
43043;DHT22;28667;50.758;6.096;2024-03-08T04:28:09;0.50;99.90
43043;DHT22;28667;50.758;6.096;2024-03-08T04:30:39;0.40;99.90
43043;DHT22;28667;50.758;6.096;2024-03-08T04:33:07;0.40;99.90
43043;DHT22;28667;50.758;6.096;2024-03-08T04:35:34;0.30;99.90
43043;DHT22;28667;50.758;6.096;2024-03-08T04:37:59;0.40;99.90
43043;DHT22;28667;50.758;6.096;2024-03-08T04:40:25;0.30;99.90
43043;DHT22;28667;50.758;6.096;2024-03-08T04:42:51;0.30;99.90
43043;DHT22;28667;50.758;6.096;2024-03-08T04:45:18;0.30;99.90
43043;DHT22;28667;50.758;6.096;2024-03-08T04:47:44;0.20;99.90
43043;DHT22;28667;50.758;6.096;2024-03-08T04:50:09;0.20;99.90
43043;DHT22;28667;50.758;6.096;2024-03-08T04:52:36;0.20;99.90
43043;DHT22;28667;50.758;6.096;2024-03-08T04:55:02;0.20;99.90
43043;DHT22;28667;50.758;6.096;2024-03-08T04:57:31;0.20;99.90
43043;DHT22;28667;50.758;6.096;2024-03-08T04:59:57;0.10;99.90
43043;DHT22;28667;50.758;6.096;2024-03-08T05:02:24;0.10;99.90
43043;DHT22;28667;50.758;6.096;2024-03-08T05:04:50;0.10;99.90
43043;DHT22;28667;50.758;6.096;2024-03-08T05:07:16;0.00;99.90
43043;DHT22;28667;50.758;6.096;2024-03-08T05:09:42;0.00;99.90
43043;DHT22;28667;50.758;6.096;2024-03-08T05:12:08;0.00;99.90
43043;DHT22;28667;50.758;6.096;2024-03-08T05:14:34;0.00;99.90
43043;DHT22;28667;50.758;6.096;2024-03-08T05:17:00;0.00;99.90
43043;DHT22;28667;50.758;6.096;2024-03-08T05:19:26;-0.10;99.90
43043;DHT22;28667;50.758;6.096;2024-03-08T05:21:52;-0.10;99.90
43043;DHT22;28667;50.758;6.096;2024-03-08T05:24:18;-0.10;99.90
43043;DHT22;28667;50.758;6.096;2024-03-08T05:26:45;-0.20;99.90
43043;DHT22;28667;50.758;6.096;2024-03-08T05:29:11;-0.10;99.90
43043;DHT22;28667;50.758;6.096;2024-03-08T05:31:49;-0.20;99.90
43043;DHT22;28667;50.758;6.096;2024-03-08T05:34:16;-0.20;99.90
43043;DHT22;28667;50.758;6.096;2024-03-08T05:36:42;-0.20;99.90
43043;DHT22;28667;50.758;6.096;2024-03-08T05:39:12;-0.20;99.90
43043;DHT22;28667;50.758;6.096;2024-03-08T05:41:39;-0.20;99.90
43043;DHT22;28667;50.758;6.096;2024-03-08T05:44:05;-0.20;99.90
43043;DHT22;28667;50.758;6.096;2024-03-08T05:46:31;-0.20;99.90
43043;DHT22;28667;50.758;6.096;2024-03-08T05:48:56;-0.30;99.90
43043;DHT22;28667;50.758;6.096;2024-03-08T05:51:24;-0.30;99.90
43043;DHT22;28667;50.758;6.096;2024-03-08T05:53:51;-0.30;99.90
43043;DHT22;28667;50.758;6.096;2024-03-08T05:56:19;-0.30;99.90
43043;DHT22;28667;50.758;6.096;2024-03-08T05:58:45;-0.20;99.90
43043;DHT22;28667;50.758;6.096;2024-03-08T06:01:11;-0.30;99.90
43043;DHT22;28667;50.758;6.096;2024-03-08T06:03:38;-0.20;99.90
43043;DHT22;28667;50.758;6.096;2024-03-08T06:06:14;-0.20;99.90
43043;DHT22;28667;50.758;6.096;2024-03-08T06:08:40;-0.20;99.90
43043;DHT22;28667;50.758;6.096;2024-03-08T06:11:09;-0.10;99.90
43043;DHT22;28667;50.758;6.096;2024-03-08T06:13:35;0.00;99.90
43043;DHT22;28667;50.758;6.096;2024-03-08T06:16:02;0.00;99.90
43043;DHT22;28667;50.758;6.096;2024-03-08T06:18:31;0.10;99.90
43043;DHT22;28667;50.758;6.096;2024-03-08T06:20:57;0.10;99.90
43043;DHT22;28667;50.758;6.096;2024-03-08T06:23:23;0.20;99.90
43043;DHT22;28667;50.758;6.096;2024-03-08T06:25:48;0.20;99.90
43043;DHT22;28667;50.758;6.096;2024-03-08T06:28:14;0.30;99.90
43043;DHT22;28667;50.758;6.096;2024-03-08T06:30:40;0.40;99.90
43043;DHT22;28667;50.758;6.096;2024-03-08T06:33:06;0.40;99.90
43043;DHT22;28667;50.758;6.096;2024-03-08T06:35:36;0.40;99.90
43043;DHT22;28667;50.758;6.096;2024-03-08T06:38:04;0.50;99.90
43043;DHT22;28667;50.758;6.096;2024-03-08T06:40:30;0.50;99.90
43043;DHT22;28667;50.758;6.096;2024-03-08T06:42:56;0.60;99.90
43043;DHT22;28667;50.758;6.096;2024-03-08T06:45:21;0.60;99.90
43043;DHT22;28667;50.758;6.096;2024-03-08T06:47:49;0.70;99.90
43043;DHT22;28667;50.758;6.096;2024-03-08T06:50:17;0.70;99.90
43043;DHT22;28667;50.758;6.096;2024-03-08T06:52:43;0.80;99.90
43043;DHT22;28667;50.758;6.096;2024-03-08T06:55:10;0.80;99.90
43043;DHT22;28667;50.758;6.096;2024-03-08T06:57:39;0.80;99.90
43043;DHT22;28667;50.758;6.096;2024-03-08T07:00:10;0.90;99.90
43043;DHT22;28667;50.758;6.096;2024-03-08T07:02:40;0.90;99.90
43043;DHT22;28667;50.758;6.096;2024-03-08T07:05:07;1.00;99.90
43043;DHT22;28667;50.758;6.096;2024-03-08T07:07:36;1.00;99.90
43043;DHT22;28667;50.758;6.096;2024-03-08T07:10:02;1.10;99.90
43043;DHT22;28667;50.758;6.096;2024-03-08T07:12:27;1.10;99.90
43043;DHT22;28667;50.758;6.096;2024-03-08T07:14:53;1.20;99.90
43043;DHT22;28667;50.758;6.096;2024-03-08T07:17:19;1.20;99.90
43043;DHT22;28667;50.758;6.096;2024-03-08T07:19:44;1.20;99.90
43043;DHT22;28667;50.758;6.096;2024-03-08T07:22:10;1.30;99.90
43043;DHT22;28667;50.758;6.096;2024-03-08T07:24:36;1.40;99.90
43043;DHT22;28667;50.758;6.096;2024-03-08T07:27:04;1.40;99.90
43043;DHT22;28667;50.758;6.096;2024-03-08T07:29:31;1.50;99.90
43043;DHT22;28667;50.758;6.096;2024-03-08T07:31:57;1.50;99.90
43043;DHT22;28667;50.758;6.096;2024-03-08T07:34:28;1.60;99.90
43043;DHT22;28667;50.758;6.096;2024-03-08T07:36:58;1.60;99.90
43043;DHT22;28667;50.758;6.096;2024-03-08T07:39:24;1.70;99.90
43043;DHT22;28667;50.758;6.096;2024-03-08T07:41:50;1.80;99.90
43043;DHT22;28667;50.758;6.096;2024-03-08T07:44:18;1.90;99.90
43043;DHT22;28667;50.758;6.096;2024-03-08T07:46:44;2.00;99.90
43043;DHT22;28667;50.758;6.096;2024-03-08T07:49:10;2.00;99.90
43043;DHT22;28667;50.758;6.096;2024-03-08T07:51:38;2.10;99.90
43043;DHT22;28667;50.758;6.096;2024-03-08T07:54:04;2.20;99.90
43043;DHT22;28667;50.758;6.096;2024-03-08T07:56:30;2.30;99.90
43043;DHT22;28667;50.758;6.096;2024-03-08T07:58:56;2.40;99.90
43043;DHT22;28667;50.758;6.096;2024-03-08T08:01:22;2.50;99.90
43043;DHT22;28667;50.758;6.096;2024-03-08T08:03:48;2.60;99.90
43043;DHT22;28667;50.758;6.096;2024-03-08T08:06:19;2.80;99.90
43043;DHT22;28667;50.758;6.096;2024-03-08T08:08:45;2.90;99.90
43043;DHT22;28667;50.758;6.096;2024-03-08T08:11:11;3.00;99.90
43043;DHT22;28667;50.758;6.096;2024-03-08T08:13:37;3.20;99.90
43043;DHT22;28667;50.758;6.096;2024-03-08T08:16:03;3.40;99.90
43043;DHT22;28667;50.758;6.096;2024-03-08T08:18:31;3.50;99.90
43043;DHT22;28667;50.758;6.096;2024-03-08T08:20:59;3.70;99.90
43043;DHT22;28667;50.758;6.096;2024-03-08T08:23:27;3.90;99.90
43043;DHT22;28667;50.758;6.096;2024-03-08T08:25:54;4.10;99.90
43043;DHT22;28667;50.758;6.096;2024-03-08T08:28:21;4.30;99.90
43043;DHT22;28667;50.758;6.096;2024-03-08T08:30:46;4.40;99.90
43043;DHT22;28667;50.758;6.096;2024-03-08T08:33:14;4.70;99.90
43043;DHT22;28667;50.758;6.096;2024-03-08T08:35:40;4.90;99.90
43043;DHT22;28667;50.758;6.096;2024-03-08T08:38:06;5.30;99.90
43043;DHT22;28667;50.758;6.096;2024-03-08T08:40:35;5.50;99.90
43043;DHT22;28667;50.758;6.096;2024-03-08T08:43:02;5.80;99.90
43043;DHT22;28667;50.758;6.096;2024-03-08T08:45:31;6.10;99.90
43043;DHT22;28667;50.758;6.096;2024-03-08T08:47:57;6.40;99.90
43043;DHT22;28667;50.758;6.096;2024-03-08T08:50:25;6.70;99.90
43043;DHT22;28667;50.758;6.096;2024-03-08T08:52:59;7.00;99.90
43043;DHT22;28667;50.758;6.096;2024-03-08T08:55:25;7.30;99.90
43043;DHT22;28667;50.758;6.096;2024-03-08T08:57:51;7.40;99.90
43043;DHT22;28667;50.758;6.096;2024-03-08T09:00:19;7.60;99.90
43043;DHT22;28667;50.758;6.096;2024-03-08T09:02:45;8.00;99.90
43043;DHT22;28667;50.758;6.096;2024-03-08T09:07:39;8.40;99.90
43043;DHT22;28667;50.758;6.096;2024-03-08T09:10:05;8.50;99.90
43043;DHT22;28667;50.758;6.096;2024-03-08T09:12:31;8.60;99.90
43043;DHT22;28667;50.758;6.096;2024-03-08T09:14:58;8.80;99.90
43043;DHT22;28667;50.758;6.096;2024-03-08T09:17:25;8.90;99.90
43043;DHT22;28667;50.758;6.096;2024-03-08T09:19:51;9.00;99.90
43043;DHT22;28667;50.758;6.096;2024-03-08T09:22:16;9.10;99.60
43043;DHT22;28667;50.758;6.096;2024-03-08T09:24:43;9.20;99.50
43043;DHT22;28667;50.758;6.096;2024-03-08T09:27:09;9.30;99.30
43043;DHT22;28667;50.758;6.096;2024-03-08T09:29:35;9.30;99.50
43043;DHT22;28667;50.758;6.096;2024-03-08T09:32:01;9.40;99.60
43043;DHT22;28667;50.758;6.096;2024-03-08T09:34:27;9.50;98.90
43043;DHT22;28667;50.758;6.096;2024-03-08T09:36:53;9.50;99.30
43043;DHT22;28667;50.758;6.096;2024-03-08T09:39:19;9.60;98.30
43043;DHT22;28667;50.758;6.096;2024-03-08T09:41:47;9.60;98.50
43043;DHT22;28667;50.758;6.096;2024-03-08T09:44:16;9.70;98.40
43043;DHT22;28667;50.758;6.096;2024-03-08T09:46:48;9.70;98.20
43043;DHT22;28667;50.758;6.096;2024-03-08T09:49:14;9.70;97.80
43043;DHT22;28667;50.758;6.096;2024-03-08T09:51:40;9.70;98.00
43043;DHT22;28667;50.758;6.096;2024-03-08T09:54:06;9.70;98.10
43043;DHT22;28667;50.758;6.096;2024-03-08T09:56:35;9.70;98.40
43043;DHT22;28667;50.758;6.096;2024-03-08T09:59:01;9.60;98.20
43043;DHT22;28667;50.758;6.096;2024-03-08T10:02:05;9.60;98.30
43043;DHT22;28667;50.758;6.096;2024-03-08T10:04:31;9.50;98.30
43043;DHT22;28667;50.758;6.096;2024-03-08T10:07:01;9.50;99.00
43043;DHT22;28667;50.758;6.096;2024-03-08T10:09:27;9.40;98.40
43043;DHT22;28667;50.758;6.096;2024-03-08T10:11:56;9.40;98.60
43043;DHT22;28667;50.758;6.096;2024-03-08T10:14:22;9.40;97.70
43043;DHT22;28667;50.758;6.096;2024-03-08T10:16:47;9.40;97.90
43043;DHT22;28667;50.758;6.096;2024-03-08T10:19:13;9.40;97.80
43043;DHT22;28667;50.758;6.096;2024-03-08T10:21:49;9.40;98.60
43043;DHT22;28667;50.758;6.096;2024-03-08T10:24:15;9.50;98.40
43043;DHT22;28667;50.758;6.096;2024-03-08T10:26:41;9.50;98.30
43043;DHT22;28667;50.758;6.096;2024-03-08T10:29:09;9.60;98.10
43043;DHT22;28667;50.758;6.096;2024-03-08T10:31:35;9.80;96.70
43043;DHT22;28667;50.758;6.096;2024-03-08T10:34:01;9.80;97.10
43043;DHT22;28667;50.758;6.096;2024-03-08T10:36:28;9.90;97.70
43043;DHT22;28667;50.758;6.096;2024-03-08T10:38:56;10.00;96.20
43043;DHT22;28667;50.758;6.096;2024-03-08T10:41:29;10.00;95.80
43043;DHT22;28667;50.758;6.096;2024-03-08T10:44:15;10.10;94.90
43043;DHT22;28667;50.758;6.096;2024-03-08T10:49:38;10.30;95.70
43043;DHT22;28667;50.758;6.096;2024-03-08T10:52:05;10.50;94.50
43043;DHT22;28667;50.758;6.096;2024-03-08T10:54:34;10.70;93.60
43043;DHT22;28667;50.758;6.096;2024-03-08T10:57:05;10.80;92.80
43043;DHT22;28667;50.758;6.096;2024-03-08T10:59:31;10.90;92.70
43043;DHT22;28667;50.758;6.096;2024-03-08T11:01:59;11.00;92.60
43043;DHT22;28667;50.758;6.096;2024-03-08T11:04:25;11.20;92.70
43043;DHT22;28667;50.758;6.096;2024-03-08T11:06:52;11.40;91.80
43043;DHT22;28667;50.758;6.096;2024-03-08T11:09:37;11.60;91.70
43043;DHT22;28667;50.758;6.096;2024-03-08T11:14:50;12.40;90.70
43043;DHT22;28667;50.758;6.096;2024-03-08T11:17:44;12.80;89.70
43043;DHT22;28667;50.758;6.096;2024-03-08T11:20:10;13.10;88.40
43043;DHT22;28667;50.758;6.096;2024-03-08T11:22:42;13.30;86.50
43043;DHT22;28667;50.758;6.096;2024-03-08T11:25:31;13.40;85.90
43043;DHT22;28667;50.758;6.096;2024-03-08T11:28:11;13.50;87.80
43043;DHT22;28667;50.758;6.096;2024-03-08T11:33:30;13.90;85.70
43043;DHT22;28667;50.758;6.096;2024-03-08T11:38:45;13.80;83.50
43043;DHT22;28667;50.758;6.096;2024-03-08T11:41:16;13.80;83.30
43043;DHT22;28667;50.758;6.096;2024-03-08T11:43:43;13.80;82.30
43043;DHT22;28667;50.758;6.096;2024-03-08T11:46:14;13.80;83.30
43043;DHT22;28667;50.758;6.096;2024-03-08T11:48:41;14.00;83.10
43043;DHT22;28667;50.758;6.096;2024-03-08T11:51:08;14.00;82.30
43043;DHT22;28667;50.758;6.096;2024-03-08T11:53:34;14.10;81.00
43043;DHT22;28667;50.758;6.096;2024-03-08T11:56:12;14.20;80.70
43043;DHT22;28667;50.758;6.096;2024-03-08T11:58:39;14.40;82.30
43043;DHT22;28667;50.758;6.096;2024-03-08T12:01:09;14.40;81.50
43043;DHT22;28667;50.758;6.096;2024-03-08T12:03:41;14.50;80.80
43043;DHT22;28667;50.758;6.096;2024-03-08T12:06:13;14.60;80.00
43043;DHT22;28667;50.758;6.096;2024-03-08T12:08:39;14.70;79.50
43043;DHT22;28667;50.758;6.096;2024-03-08T12:11:05;14.90;82.10
43043;DHT22;28667;50.758;6.096;2024-03-08T12:13:32;15.10;79.50
43043;DHT22;28667;50.758;6.096;2024-03-08T12:16:02;15.00;80.10
43043;DHT22;28667;50.758;6.096;2024-03-08T12:18:34;15.10;79.10
43043;DHT22;28667;50.758;6.096;2024-03-08T12:21:12;15.10;77.80
43043;DHT22;28667;50.758;6.096;2024-03-08T12:23:45;14.80;80.10
43043;DHT22;28667;50.758;6.096;2024-03-08T12:28:40;14.90;80.90
43043;DHT22;28667;50.758;6.096;2024-03-08T12:31:11;15.10;81.30
43043;DHT22;28667;50.758;6.096;2024-03-08T12:36:18;15.30;80.40
43043;DHT22;28667;50.758;6.096;2024-03-08T12:38:49;15.30;77.50
43043;DHT22;28667;50.758;6.096;2024-03-08T12:41:15;15.10;79.80
43043;DHT22;28667;50.758;6.096;2024-03-08T12:43:43;15.20;78.40
43043;DHT22;28667;50.758;6.096;2024-03-08T12:48:43;15.10;78.70
43043;DHT22;28667;50.758;6.096;2024-03-08T12:51:13;14.70;78.70
43043;DHT22;28667;50.758;6.096;2024-03-08T12:53:39;14.30;80.10
43043;DHT22;28667;50.758;6.096;2024-03-08T12:56:10;14.00;81.20
43043;DHT22;28667;50.758;6.096;2024-03-08T12:58:36;13.80;81.90
43043;DHT22;28667;50.758;6.096;2024-03-08T13:01:03;13.60;81.50
43043;DHT22;28667;50.758;6.096;2024-03-08T13:03:35;13.30;82.30
43043;DHT22;28667;50.758;6.096;2024-03-08T13:06:07;13.10;82.40
43043;DHT22;28667;50.758;6.096;2024-03-08T13:08:37;12.90;82.60
43043;DHT22;28667;50.758;6.096;2024-03-08T13:11:09;12.70;83.20
43043;DHT22;28667;50.758;6.096;2024-03-08T13:13:37;12.50;83.10
43043;DHT22;28667;50.758;6.096;2024-03-08T13:16:06;12.40;82.90
43043;DHT22;28667;50.758;6.096;2024-03-08T13:18:37;12.30;85.10
43043;DHT22;28667;50.758;6.096;2024-03-08T13:21:06;12.20;84.80
43043;DHT22;28667;50.758;6.096;2024-03-08T13:23:32;12.20;84.60
43043;DHT22;28667;50.758;6.096;2024-03-08T13:25:59;12.10;84.60
43043;DHT22;28667;50.758;6.096;2024-03-08T13:28:25;12.00;86.10
43043;DHT22;28667;50.758;6.096;2024-03-08T13:30:55;11.90;85.50
43043;DHT22;28667;50.758;6.096;2024-03-08T13:33:23;11.90;85.10
43043;DHT22;28667;50.758;6.096;2024-03-08T13:35:49;11.90;84.40
43043;DHT22;28667;50.758;6.096;2024-03-08T13:38:16;11.90;85.00
43043;DHT22;28667;50.758;6.096;2024-03-08T13:40:46;11.70;84.30
43043;DHT22;28667;50.758;6.096;2024-03-08T13:43:12;11.70;84.70
43043;DHT22;28667;50.758;6.096;2024-03-08T13:45:38;11.70;85.10
43043;DHT22;28667;50.758;6.096;2024-03-08T13:48:07;11.60;85.60
43043;DHT22;28667;50.758;6.096;2024-03-08T13:50:38;11.60;86.20
43043;DHT22;28667;50.758;6.096;2024-03-08T13:53:04;11.60;86.70
43043;DHT22;28667;50.758;6.096;2024-03-08T13:55:29;11.60;85.90
43043;DHT22;28667;50.758;6.096;2024-03-08T13:57:57;11.50;84.90
43043;DHT22;28667;50.758;6.096;2024-03-08T14:00:23;11.50;86.70
43043;DHT22;28667;50.758;6.096;2024-03-08T14:02:51;11.50;85.10
43043;DHT22;28667;50.758;6.096;2024-03-08T14:05:17;11.40;85.50
43043;DHT22;28667;50.758;6.096;2024-03-08T14:07:48;11.30;85.30
43043;DHT22;28667;50.758;6.096;2024-03-08T14:10:14;11.30;86.90
43043;DHT22;28667;50.758;6.096;2024-03-08T14:12:40;11.30;87.20
43043;DHT22;28667;50.758;6.096;2024-03-08T14:15:08;11.30;86.10
43043;DHT22;28667;50.758;6.096;2024-03-08T14:17:35;11.30;86.30
43043;DHT22;28667;50.758;6.096;2024-03-08T14:20:01;11.30;86.90
43043;DHT22;28667;50.758;6.096;2024-03-08T14:22:27;11.30;86.80
43043;DHT22;28667;50.758;6.096;2024-03-08T14:24:53;11.30;88.00
43043;DHT22;28667;50.758;6.096;2024-03-08T14:27:21;11.30;87.20
43043;DHT22;28667;50.758;6.096;2024-03-08T14:29:48;11.30;88.90
43043;DHT22;28667;50.758;6.096;2024-03-08T14:32:14;11.30;88.30
43043;DHT22;28667;50.758;6.096;2024-03-08T14:34:40;11.20;89.10
43043;DHT22;28667;50.758;6.096;2024-03-08T14:37:05;11.20;88.40
43043;DHT22;28667;50.758;6.096;2024-03-08T14:39:37;11.20;87.50
43043;DHT22;28667;50.758;6.096;2024-03-08T14:42:03;11.10;86.60
43043;DHT22;28667;50.758;6.096;2024-03-08T14:44:29;11.10;86.30
43043;DHT22;28667;50.758;6.096;2024-03-08T14:46:55;11.10;87.60
43043;DHT22;28667;50.758;6.096;2024-03-08T14:49:22;11.10;89.10
43043;DHT22;28667;50.758;6.096;2024-03-08T14:51:48;11.00;89.10
43043;DHT22;28667;50.758;6.096;2024-03-08T14:54:14;11.00;89.00
43043;DHT22;28667;50.758;6.096;2024-03-08T14:56:39;10.90;88.30
43043;DHT22;28667;50.758;6.096;2024-03-08T14:59:07;10.90;89.30
43043;DHT22;28667;50.758;6.096;2024-03-08T15:01:34;10.90;90.20
43043;DHT22;28667;50.758;6.096;2024-03-08T15:04:02;10.90;90.30
43043;DHT22;28667;50.758;6.096;2024-03-08T15:06:37;10.90;90.20
43043;DHT22;28667;50.758;6.096;2024-03-08T15:09:04;10.80;90.40
43043;DHT22;28667;50.758;6.096;2024-03-08T15:11:48;10.80;90.50
43043;DHT22;28667;50.758;6.096;2024-03-08T15:14:16;10.70;90.10
43043;DHT22;28667;50.758;6.096;2024-03-08T15:16:44;10.70;90.50
43043;DHT22;28667;50.758;6.096;2024-03-08T15:19:10;10.70;90.60
43043;DHT22;28667;50.758;6.096;2024-03-08T15:21:37;10.60;90.80
43043;DHT22;28667;50.758;6.096;2024-03-08T15:24:04;10.60;90.80
43043;DHT22;28667;50.758;6.096;2024-03-08T15:26:30;10.60;91.10
43043;DHT22;28667;50.758;6.096;2024-03-08T15:28:57;10.60;91.00
43043;DHT22;28667;50.758;6.096;2024-03-08T15:31:23;10.50;90.80
43043;DHT22;28667;50.758;6.096;2024-03-08T15:33:50;10.50;91.10
43043;DHT22;28667;50.758;6.096;2024-03-08T15:36:37;10.50;91.30
43043;DHT22;28667;50.758;6.096;2024-03-08T15:39:03;10.50;91.40
43043;DHT22;28667;50.758;6.096;2024-03-08T15:41:28;10.40;91.10
43043;DHT22;28667;50.758;6.096;2024-03-08T15:43:55;10.40;91.50
43043;DHT22;28667;50.758;6.096;2024-03-08T15:46:21;10.40;91.80
43043;DHT22;28667;50.758;6.096;2024-03-08T15:48:50;10.30;91.70
43043;DHT22;28667;50.758;6.096;2024-03-08T15:51:17;10.30;91.60
43043;DHT22;28667;50.758;6.096;2024-03-08T15:53:44;10.30;92.00
43043;DHT22;28667;50.758;6.096;2024-03-08T15:56:18;10.20;91.80
43043;DHT22;28667;50.758;6.096;2024-03-08T15:58:46;10.10;91.80
43043;DHT22;28667;50.758;6.096;2024-03-08T16:01:11;10.10;92.00
43043;DHT22;28667;50.758;6.096;2024-03-08T16:03:41;10.10;92.00